sensor_id;sensor_type;location;lat;lon;timestamp;P1;durP1;ratioP1;P2;durP2;ratioP2
53115;SDS011;39010;48.088;7.954;2022-11-15T00:01:41;9.55;;;3.90;;
53115;SDS011;39010;48.088;7.954;2022-11-15T00:04:26;9.93;;;4.35;;
53115;SDS011;39010;48.088;7.954;2022-11-15T00:07:11;11.52;;;4.30;;
53115;SDS011;39010;48.088;7.954;2022-11-15T00:10:16;7.07;;;3.63;;
53115;SDS011;39010;48.088;7.954;2022-11-15T00:13:12;10.75;;;3.88;;
53115;SDS011;39010;48.088;7.954;2022-11-15T00:15:58;7.78;;;3.63;;
53115;SDS011;39010;48.088;7.954;2022-11-15T00:18:45;8.02;;;3.65;;
53115;SDS011;39010;48.088;7.954;2022-11-15T00:21:35;6.50;;;3.53;;
53115;SDS011;39010;48.088;7.954;2022-11-15T00:24:20;7.47;;;3.10;;
53115;SDS011;39010;48.088;7.954;2022-11-15T00:27:08;9.13;;;3.80;;
53115;SDS011;39010;48.088;7.954;2022-11-15T00:29:53;8.75;;;3.83;;
53115;SDS011;39010;48.088;7.954;2022-11-15T00:32:38;6.05;;;3.60;;
53115;SDS011;39010;48.088;7.954;2022-11-15T00:35:23;10.48;;;3.80;;
53115;SDS011;39010;48.088;7.954;2022-11-15T00:38:08;7.18;;;3.38;;
53115;SDS011;39010;48.088;7.954;2022-11-15T00:40:54;7.82;;;3.50;;
53115;SDS011;39010;48.088;7.954;2022-11-15T00:43:39;7.75;;;3.40;;
53115;SDS011;39010;48.088;7.954;2022-11-15T00:46:24;7.70;;;3.42;;
53115;SDS011;39010;48.088;7.954;2022-11-15T00:49:10;5.95;;;3.25;;
53115;SDS011;39010;48.088;7.954;2022-11-15T00:51:55;8.70;;;3.47;;
53115;SDS011;39010;48.088;7.954;2022-11-15T00:54:41;6.82;;;3.20;;
53115;SDS011;39010;48.088;7.954;2022-11-15T00:57:25;7.95;;;3.50;;
53115;SDS011;39010;48.088;7.954;2022-11-15T01:00:11;7.10;;;3.22;;
53115;SDS011;39010;48.088;7.954;2022-11-15T01:02:56;7.60;;;3.40;;
53115;SDS011;39010;48.088;7.954;2022-11-15T01:05:41;8.18;;;3.65;;
53115;SDS011;39010;48.088;7.954;2022-11-15T01:08:26;6.63;;;3.42;;
53115;SDS011;39010;48.088;7.954;2022-11-15T01:11:12;7.22;;;3.30;;
53115;SDS011;39010;48.088;7.954;2022-11-15T01:13:57;8.35;;;3.30;;
53115;SDS011;39010;48.088;7.954;2022-11-15T01:16:42;6.82;;;3.53;;
53115;SDS011;39010;48.088;7.954;2022-11-15T01:19:27;9.20;;;3.70;;
53115;SDS011;39010;48.088;7.954;2022-11-15T01:22:12;9.20;;;3.63;;
53115;SDS011;39010;48.088;7.954;2022-11-15T01:24:57;5.70;;;3.30;;
53115;SDS011;39010;48.088;7.954;2022-11-15T01:27:43;6.47;;;3.63;;
53115;SDS011;39010;48.088;7.954;2022-11-15T01:30:28;10.15;;;3.25;;
53115;SDS011;39010;48.088;7.954;2022-11-15T01:33:13;6.68;;;3.60;;
53115;SDS011;39010;48.088;7.954;2022-11-15T01:35:57;8.05;;;3.67;;
53115;SDS011;39010;48.088;7.954;2022-11-15T01:38:43;5.97;;;3.22;;
53115;SDS011;39010;48.088;7.954;2022-11-15T01:41:32;6.97;;;3.78;;
53115;SDS011;39010;48.088;7.954;2022-11-15T01:47:16;7.57;;;4.30;;
53115;SDS011;39010;48.088;7.954;2022-11-15T01:50:09;8.43;;;4.13;;
53115;SDS011;39010;48.088;7.954;2022-11-15T01:52:57;8.00;;;4.50;;
53115;SDS011;39010;48.088;7.954;2022-11-15T01:55:42;8.77;;;3.97;;
53115;SDS011;39010;48.088;7.954;2022-11-15T01:58:28;9.27;;;4.22;;
53115;SDS011;39010;48.088;7.954;2022-11-15T02:01:13;6.68;;;3.83;;
53115;SDS011;39010;48.088;7.954;2022-11-15T02:04:00;11.38;;;4.22;;
53115;SDS011;39010;48.088;7.954;2022-11-15T02:06:51;8.15;;;3.95;;
53115;SDS011;39010;48.088;7.954;2022-11-15T02:09:37;7.53;;;3.83;;
53115;SDS011;39010;48.088;7.954;2022-11-15T02:12:23;7.43;;;3.60;;
53115;SDS011;39010;48.088;7.954;2022-11-15T02:15:08;6.72;;;3.45;;
53115;SDS011;39010;48.088;7.954;2022-11-15T02:21:33;8.80;;;3.50;;
53115;SDS011;39010;48.088;7.954;2022-11-15T02:24:48;8.43;;;3.75;;
53115;SDS011;39010;48.088;7.954;2022-11-15T02:43:18;8.73;;;4.30;;
53115;SDS011;39010;48.088;7.954;2022-11-15T02:49:49;7.95;;;3.95;;
53115;SDS011;39010;48.088;7.954;2022-11-15T02:52:38;7.18;;;3.80;;
53115;SDS011;39010;48.088;7.954;2022-11-15T02:55:27;7.80;;;3.92;;
53115;SDS011;39010;48.088;7.954;2022-11-15T03:01:53;9.55;;;3.70;;
53115;SDS011;39010;48.088;7.954;2022-11-15T03:08:10;7.18;;;3.72;;
53115;SDS011;39010;48.088;7.954;2022-11-15T03:11:07;9.48;;;3.63;;
53115;SDS011;39010;48.088;7.954;2022-11-15T03:13:57;8.95;;;3.60;;
53115;SDS011;39010;48.088;7.954;2022-11-15T03:17:30;7.78;;;3.47;;
53115;SDS011;39010;48.088;7.954;2022-11-15T03:20:04;7.10;;;3.28;;
53115;SDS011;39010;48.088;7.954;2022-11-15T03:22:52;5.18;;;3.30;;
53115;SDS011;39010;48.088;7.954;2022-11-15T03:25:47;6.63;;;3.42;;
53115;SDS011;39010;48.088;7.954;2022-11-15T03:28:40;7.38;;;2.97;;
53115;SDS011;39010;48.088;7.954;2022-11-15T03:31:39;8.15;;;2.97;;
53115;SDS011;39010;48.088;7.954;2022-11-15T03:34:39;8.93;;;3.85;;
53115;SDS011;39010;48.088;7.954;2022-11-15T03:37:40;7.72;;;3.53;;
53115;SDS011;39010;48.088;7.954;2022-11-15T03:40:33;8.40;;;3.90;;
53115;SDS011;39010;48.088;7.954;2022-11-15T03:46:55;6.43;;;3.50;;
53115;SDS011;39010;48.088;7.954;2022-11-15T03:49:50;9.40;;;4.18;;
53115;SDS011;39010;48.088;7.954;2022-11-15T03:52:40;7.63;;;3.65;;
53115;SDS011;39010;48.088;7.954;2022-11-15T03:55:26;7.57;;;3.85;;
53115;SDS011;39010;48.088;7.954;2022-11-15T03:58:11;8.48;;;3.75;;
53115;SDS011;39010;48.088;7.954;2022-11-15T04:00:57;7.07;;;3.83;;
53115;SDS011;39010;48.088;7.954;2022-11-15T04:03:42;7.07;;;3.83;;
53115;SDS011;39010;48.088;7.954;2022-11-15T04:06:27;8.35;;;4.28;;
53115;SDS011;39010;48.088;7.954;2022-11-15T04:09:12;9.88;;;3.97;;
53115;SDS011;39010;48.088;7.954;2022-11-15T04:11:58;7.35;;;4.00;;
53115;SDS011;39010;48.088;7.954;2022-11-15T04:14:42;10.07;;;3.90;;
53115;SDS011;39010;48.088;7.954;2022-11-15T04:17:49;7.97;;;3.50;;
53115;SDS011;39010;48.088;7.954;2022-11-15T04:20:35;6.90;;;3.55;;
53115;SDS011;39010;48.088;7.954;2022-11-15T04:23:39;5.45;;;3.10;;
53115;SDS011;39010;48.088;7.954;2022-11-15T04:26:36;7.80;;;3.38;;
53115;SDS011;39010;48.088;7.954;2022-11-15T04:29:21;8.45;;;3.75;;
53115;SDS011;39010;48.088;7.954;2022-11-15T04:32:18;7.30;;;3.42;;
53115;SDS011;39010;48.088;7.954;2022-11-15T04:35:03;6.15;;;3.28;;
53115;SDS011;39010;48.088;7.954;2022-11-15T04:37:49;6.75;;;3.30;;
53115;SDS011;39010;48.088;7.954;2022-11-15T04:40:35;6.95;;;3.33;;
53115;SDS011;39010;48.088;7.954;2022-11-15T04:43:21;8.87;;;3.40;;
53115;SDS011;39010;48.088;7.954;2022-11-15T04:46:07;7.65;;;3.30;;
53115;SDS011;39010;48.088;7.954;2022-11-15T04:48:52;6.53;;;3.20;;
53115;SDS011;39010;48.088;7.954;2022-11-15T04:51:43;5.65;;;3.20;;
53115;SDS011;39010;48.088;7.954;2022-11-15T04:54:28;6.13;;;3.42;;
53115;SDS011;39010;48.088;7.954;2022-11-15T04:57:13;7.07;;;3.47;;
53115;SDS011;39010;48.088;7.954;2022-11-15T04:59:59;6.72;;;3.20;;
53115;SDS011;39010;48.088;7.954;2022-11-15T05:02:44;8.05;;;3.28;;
53115;SDS011;39010;48.088;7.954;2022-11-15T05:05:48;5.70;;;2.92;;
53115;SDS011;39010;48.088;7.954;2022-11-15T05:08:33;9.23;;;4.10;;
53115;SDS011;39010;48.088;7.954;2022-11-15T05:11:19;9.18;;;4.53;;
53115;SDS011;39010;48.088;7.954;2022-11-15T05:14:05;10.82;;;4.82;;
53115;SDS011;39010;48.088;7.954;2022-11-15T05:16:50;10.45;;;7.63;;
53115;SDS011;39010;48.088;7.954;2022-11-15T05:19:36;11.40;;;7.63;;
53115;SDS011;39010;48.088;7.954;2022-11-15T05:22:21;9.50;;;6.75;;
53115;SDS011;39010;48.088;7.954;2022-11-15T05:25:07;10.05;;;6.13;;
53115;SDS011;39010;48.088;7.954;2022-11-15T05:27:52;10.50;;;5.63;;
53115;SDS011;39010;48.088;7.954;2022-11-15T05:30:37;9.70;;;5.30;;
53115;SDS011;39010;48.088;7.954;2022-11-15T05:33:22;9.32;;;5.28;;
53115;SDS011;39010;48.088;7.954;2022-11-15T05:39:23;11.75;;;6.32;;
53115;SDS011;39010;48.088;7.954;2022-11-15T05:42:09;12.15;;;7.53;;
53115;SDS011;39010;48.088;7.954;2022-11-15T05:44:56;11.30;;;7.93;;
53115;SDS011;39010;48.088;7.954;2022-11-15T05:47:42;12.05;;;7.43;;
53115;SDS011;39010;48.088;7.954;2022-11-15T05:50:29;10.05;;;6.70;;
53115;SDS011;39010;48.088;7.954;2022-11-15T05:53:15;12.57;;;7.70;;
53115;SDS011;39010;48.088;7.954;2022-11-15T05:56:04;9.27;;;6.80;;
53115;SDS011;39010;48.088;7.954;2022-11-15T05:58:52;8.20;;;5.68;;
53115;SDS011;39010;48.088;7.954;2022-11-15T06:01:43;10.27;;;5.85;;
53115;SDS011;39010;48.088;7.954;2022-11-15T06:04:28;9.55;;;4.75;;
53115;SDS011;39010;48.088;7.954;2022-11-15T06:07:13;8.30;;;4.60;;
53115;SDS011;39010;48.088;7.954;2022-11-15T06:09:59;7.78;;;4.63;;
53115;SDS011;39010;48.088;7.954;2022-11-15T06:12:43;9.25;;;4.80;;
53115;SDS011;39010;48.088;7.954;2022-11-15T06:15:32;11.45;;;4.88;;
53115;SDS011;39010;48.088;7.954;2022-11-15T06:18:19;9.90;;;5.05;;
53115;SDS011;39010;48.088;7.954;2022-11-15T06:21:04;12.70;;;5.07;;
53115;SDS011;39010;48.088;7.954;2022-11-15T06:23:49;10.73;;;4.85;;
53115;SDS011;39010;48.088;7.954;2022-11-15T06:26:35;10.57;;;5.35;;
53115;SDS011;39010;48.088;7.954;2022-11-15T06:29:19;10.48;;;5.68;;
53115;SDS011;39010;48.088;7.954;2022-11-15T06:32:05;11.52;;;6.18;;
53115;SDS011;39010;48.088;7.954;2022-11-15T06:34:51;10.68;;;6.28;;
53115;SDS011;39010;48.088;7.954;2022-11-15T06:37:36;11.23;;;6.07;;
53115;SDS011;39010;48.088;7.954;2022-11-15T06:40:21;11.02;;;6.05;;
53115;SDS011;39010;48.088;7.954;2022-11-15T06:43:06;12.13;;;6.50;;
53115;SDS011;39010;48.088;7.954;2022-11-15T06:45:52;9.30;;;5.43;;
53115;SDS011;39010;48.088;7.954;2022-11-15T06:48:36;11.57;;;5.82;;
53115;SDS011;39010;48.088;7.954;2022-11-15T06:51:22;9.50;;;5.55;;
53115;SDS011;39010;48.088;7.954;2022-11-15T06:54:07;13.30;;;5.72;;
53115;SDS011;39010;48.088;7.954;2022-11-15T06:56:52;9.55;;;5.03;;
53115;SDS011;39010;48.088;7.954;2022-11-15T06:59:37;8.93;;;4.85;;
53115;SDS011;39010;48.088;7.954;2022-11-15T07:02:24;8.05;;;4.57;;
53115;SDS011;39010;48.088;7.954;2022-11-15T07:05:10;7.88;;;4.45;;
53115;SDS011;39010;48.088;7.954;2022-11-15T07:07:56;11.43;;;5.65;;
53115;SDS011;39010;48.088;7.954;2022-11-15T07:10:42;9.88;;;5.07;;
53115;SDS011;39010;48.088;7.954;2022-11-15T07:13:28;10.68;;;5.70;;
53115;SDS011;39010;48.088;7.954;2022-11-15T07:16:15;10.45;;;5.97;;
53115;SDS011;39010;48.088;7.954;2022-11-15T07:19:00;11.55;;;6.00;;
53115;SDS011;39010;48.088;7.954;2022-11-15T07:21:45;12.55;;;6.55;;
53115;SDS011;39010;48.088;7.954;2022-11-15T07:24:31;13.75;;;6.65;;
53115;SDS011;39010;48.088;7.954;2022-11-15T07:27:17;12.98;;;6.80;;
53115;SDS011;39010;48.088;7.954;2022-11-15T07:30:02;10.70;;;6.20;;
53115;SDS011;39010;48.088;7.954;2022-11-15T07:32:52;13.00;;;6.55;;
53115;SDS011;39010;48.088;7.954;2022-11-15T07:35:40;15.60;;;6.57;;
53115;SDS011;39010;48.088;7.954;2022-11-15T07:38:26;12.80;;;5.90;;
53115;SDS011;39010;48.088;7.954;2022-11-15T07:41:14;12.48;;;5.55;;
53115;SDS011;39010;48.088;7.954;2022-11-15T07:44:00;13.85;;;6.25;;
53115;SDS011;39010;48.088;7.954;2022-11-15T07:46:46;10.05;;;5.65;;
53115;SDS011;39010;48.088;7.954;2022-11-15T07:49:31;12.00;;;6.28;;
53115;SDS011;39010;48.088;7.954;2022-11-15T07:52:17;10.55;;;5.65;;
53115;SDS011;39010;48.088;7.954;2022-11-15T07:55:03;11.93;;;6.65;;
53115;SDS011;39010;48.088;7.954;2022-11-15T07:57:51;12.65;;;6.97;;
53115;SDS011;39010;48.088;7.954;2022-11-15T08:03:23;12.95;;;7.43;;
53115;SDS011;39010;48.088;7.954;2022-11-15T08:06:10;13.82;;;7.20;;
53115;SDS011;39010;48.088;7.954;2022-11-15T08:08:57;12.02;;;7.32;;
53115;SDS011;39010;48.088;7.954;2022-11-15T08:11:44;11.98;;;6.93;;
53115;SDS011;39010;48.088;7.954;2022-11-15T08:14:29;12.45;;;6.65;;
53115;SDS011;39010;48.088;7.954;2022-11-15T08:17:14;12.45;;;6.35;;
53115;SDS011;39010;48.088;7.954;2022-11-15T08:20:01;15.70;;;7.95;;
53115;SDS011;39010;48.088;7.954;2022-11-15T08:22:47;10.55;;;6.38;;
53115;SDS011;39010;48.088;7.954;2022-11-15T08:25:33;10.35;;;6.57;;
53115;SDS011;39010;48.088;7.954;2022-11-15T08:28:19;13.93;;;6.77;;
53115;SDS011;39010;48.088;7.954;2022-11-15T08:31:05;11.35;;;6.75;;
53115;SDS011;39010;48.088;7.954;2022-11-15T08:33:51;11.18;;;6.63;;
53115;SDS011;39010;48.088;7.954;2022-11-15T08:36:36;11.75;;;6.93;;
53115;SDS011;39010;48.088;7.954;2022-11-15T08:39:29;13.10;;;6.80;;
53115;SDS011;39010;48.088;7.954;2022-11-15T08:42:14;12.45;;;6.43;;
53115;SDS011;39010;48.088;7.954;2022-11-15T08:45:04;8.85;;;5.80;;
53115;SDS011;39010;48.088;7.954;2022-11-15T08:47:53;10.23;;;5.60;;
53115;SDS011;39010;48.088;7.954;2022-11-15T08:50:40;9.50;;;6.20;;
53115;SDS011;39010;48.088;7.954;2022-11-15T08:53:29;11.45;;;6.28;;
53115;SDS011;39010;48.088;7.954;2022-11-15T08:56:19;14.35;;;6.53;;
53115;SDS011;39010;48.088;7.954;2022-11-15T08:59:04;9.95;;;6.00;;
53115;SDS011;39010;48.088;7.954;2022-11-15T09:01:50;9.35;;;5.40;;
53115;SDS011;39010;48.088;7.954;2022-11-15T09:04:35;13.80;;;6.15;;
53115;SDS011;39010;48.088;7.954;2022-11-15T09:07:21;14.23;;;7.03;;
53115;SDS011;39010;48.088;7.954;2022-11-15T09:10:06;10.55;;;7.00;;
53115;SDS011;39010;48.088;7.954;2022-11-15T09:12:53;11.82;;;7.50;;
53115;SDS011;39010;48.088;7.954;2022-11-15T09:15:38;13.40;;;6.97;;
53115;SDS011;39010;48.088;7.954;2022-11-15T09:18:24;12.02;;;6.68;;
53115;SDS011;39010;48.088;7.954;2022-11-15T09:21:10;15.07;;;8.77;;
53115;SDS011;39010;48.088;7.954;2022-11-15T09:23:55;25.85;;;12.82;;
53115;SDS011;39010;48.088;7.954;2022-11-15T09:26:41;18.60;;;10.95;;
53115;SDS011;39010;48.088;7.954;2022-11-15T09:29:26;10.95;;;6.53;;
53115;SDS011;39010;48.088;7.954;2022-11-15T09:32:11;11.93;;;6.50;;
53115;SDS011;39010;48.088;7.954;2022-11-15T09:34:57;10.32;;;4.97;;
53115;SDS011;39010;48.088;7.954;2022-11-15T09:37:43;7.85;;;4.40;;
53115;SDS011;39010;48.088;7.954;2022-11-15T09:40:29;9.07;;;4.53;;
53115;SDS011;39010;48.088;7.954;2022-11-15T09:49:39;16.40;;;9.55;;
53115;SDS011;39010;48.088;7.954;2022-11-15T09:52:22;13.90;;;8.25;;
53115;SDS011;39010;48.088;7.954;2022-11-15T10:05:38;13.68;;;7.95;;
53115;SDS011;39010;48.088;7.954;2022-11-15T10:10:57;17.30;;;9.85;;
53115;SDS011;39010;48.088;7.954;2022-11-15T10:13:54;14.50;;;9.02;;
53115;SDS011;39010;48.088;7.954;2022-11-15T10:24:44;17.58;;;9.00;;
53115;SDS011;39010;48.088;7.954;2022-11-15T10:27:14;14.40;;;8.60;;
53115;SDS011;39010;48.088;7.954;2022-11-15T10:29:43;14.38;;;8.38;;
53115;SDS011;39010;48.088;7.954;2022-11-15T10:32:17;13.82;;;8.38;;
53115;SDS011;39010;48.088;7.954;2022-11-15T10:34:46;13.20;;;6.93;;
53115;SDS011;39010;48.088;7.954;2022-11-15T10:37:14;12.70;;;6.75;;
53115;SDS011;39010;48.088;7.954;2022-11-15T10:39:40;10.85;;;6.72;;
53115;SDS011;39010;48.088;7.954;2022-11-15T10:44:53;10.30;;;6.28;;
53115;SDS011;39010;48.088;7.954;2022-11-15T10:47:21;9.80;;;4.65;;
53115;SDS011;39010;48.088;7.954;2022-11-15T10:49:52;7.65;;;4.38;;
53115;SDS011;39010;48.088;7.954;2022-11-15T10:52:21;8.48;;;4.28;;
53115;SDS011;39010;48.088;7.954;2022-11-15T10:54:50;7.30;;;4.05;;
53115;SDS011;39010;48.088;7.954;2022-11-15T10:57:27;7.22;;;4.03;;
53115;SDS011;39010;48.088;7.954;2022-11-15T11:00:07;6.88;;;3.53;;
53115;SDS011;39010;48.088;7.954;2022-11-15T11:10:37;7.15;;;4.15;;
53115;SDS011;39010;48.088;7.954;2022-11-15T11:13:28;10.20;;;4.88;;
53115;SDS011;39010;48.088;7.954;2022-11-15T11:16:07;8.38;;;4.60;;
53115;SDS011;39010;48.088;7.954;2022-11-15T11:22:01;8.35;;;4.85;;
53115;SDS011;39010;48.088;7.954;2022-11-15T11:24:42;9.77;;;4.97;;
53115;SDS011;39010;48.088;7.954;2022-11-15T11:27:17;11.00;;;5.40;;
53115;SDS011;39010;48.088;7.954;2022-11-15T11:35:31;11.27;;;6.40;;
53115;SDS011;39010;48.088;7.954;2022-11-15T11:40:44;14.32;;;8.88;;
53115;SDS011;39010;48.088;7.954;2022-11-15T11:43:33;12.00;;;6.35;;
53115;SDS011;39010;48.088;7.954;2022-11-15T11:48:46;11.23;;;5.97;;
53115;SDS011;39010;48.088;7.954;2022-11-15T11:53:52;15.63;;;6.40;;
53115;SDS011;39010;48.088;7.954;2022-11-15T11:56:32;13.68;;;6.45;;
53115;SDS011;39010;48.088;7.954;2022-11-15T12:02:26;13.27;;;6.32;;
53115;SDS011;39010;48.088;7.954;2022-11-15T12:05:01;11.38;;;5.70;;
53115;SDS011;39010;48.088;7.954;2022-11-15T12:18:08;8.18;;;4.05;;
53115;SDS011;39010;48.088;7.954;2022-11-15T12:20:41;6.93;;;3.83;;
53115;SDS011;39010;48.088;7.954;2022-11-15T12:23:25;6.57;;;3.60;;
53115;SDS011;39010;48.088;7.954;2022-11-15T12:25:57;7.95;;;3.60;;
53115;SDS011;39010;48.088;7.954;2022-11-15T12:28:40;7.18;;;3.80;;
53115;SDS011;39010;48.088;7.954;2022-11-15T12:31:42;6.75;;;3.50;;
53115;SDS011;39010;48.088;7.954;2022-11-15T12:36:47;6.47;;;3.17;;
53115;SDS011;39010;48.088;7.954;2022-11-15T12:39:16;6.70;;;3.88;;
53115;SDS011;39010;48.088;7.954;2022-11-15T12:47:01;7.13;;;3.58;;
53115;SDS011;39010;48.088;7.954;2022-11-15T13:02:21;7.72;;;3.95;;
53115;SDS011;39010;48.088;7.954;2022-11-15T13:04:51;7.85;;;3.22;;
53115;SDS011;39010;48.088;7.954;2022-11-15T13:17:44;4.97;;;2.42;;
53115;SDS011;39010;48.088;7.954;2022-11-15T13:20:22;5.15;;;2.20;;
53115;SDS011;39010;48.088;7.954;2022-11-15T13:28:47;4.93;;;2.45;;
53115;SDS011;39010;48.088;7.954;2022-11-15T13:31:28;9.40;;;2.95;;
53115;SDS011;39010;48.088;7.954;2022-11-15T13:34:01;5.82;;;3.03;;
53115;SDS011;39010;48.088;7.954;2022-11-15T13:37:12;5.15;;;2.20;;
53115;SDS011;39010;48.088;7.954;2022-11-15T13:46:06;4.28;;;2.05;;
53115;SDS011;39010;48.088;7.954;2022-11-15T13:49:08;3.90;;;2.00;;
53115;SDS011;39010;48.088;7.954;2022-11-15T13:51:46;5.55;;;2.35;;
53115;SDS011;39010;48.088;7.954;2022-11-15T13:56:53;5.78;;;2.40;;
53115;SDS011;39010;48.088;7.954;2022-11-15T13:59:25;7.63;;;3.60;;
53115;SDS011;39010;48.088;7.954;2022-11-15T14:01:55;4.30;;;2.70;;
53115;SDS011;39010;48.088;7.954;2022-11-15T14:04:25;4.75;;;2.28;;
53115;SDS011;39010;48.088;7.954;2022-11-15T14:06:56;5.03;;;2.20;;
53115;SDS011;39010;48.088;7.954;2022-11-15T14:09:29;4.78;;;2.10;;
53115;SDS011;39010;48.088;7.954;2022-11-15T14:11:57;5.68;;;2.40;;
53115;SDS011;39010;48.088;7.954;2022-11-15T14:14:24;4.28;;;2.25;;
53115;SDS011;39010;48.088;7.954;2022-11-15T14:16:59;6.22;;;2.00;;
53115;SDS011;39010;48.088;7.954;2022-11-15T14:22:08;5.07;;;2.30;;
53115;SDS011;39010;48.088;7.954;2022-11-15T14:24:35;7.63;;;2.38;;
53115;SDS011;39010;48.088;7.954;2022-11-15T14:27:16;9.63;;;2.13;;
53115;SDS011;39010;48.088;7.954;2022-11-15T14:29:44;6.53;;;2.13;;
53115;SDS011;39010;48.088;7.954;2022-11-15T14:32:14;5.40;;;1.98;;
53115;SDS011;39010;48.088;7.954;2022-11-15T14:34:45;5.68;;;1.95;;
53115;SDS011;39010;48.088;7.954;2022-11-15T14:37:22;7.57;;;2.10;;
53115;SDS011;39010;48.088;7.954;2022-11-15T14:39:49;5.78;;;1.65;;
53115;SDS011;39010;48.088;7.954;2022-11-15T14:42:17;6.40;;;2.22;;
53115;SDS011;39010;48.088;7.954;2022-11-15T14:44:44;7.45;;;2.60;;
53115;SDS011;39010;48.088;7.954;2022-11-15T14:47:11;6.78;;;2.85;;
53115;SDS011;39010;48.088;7.954;2022-11-15T14:49:38;8.30;;;3.33;;
53115;SDS011;39010;48.088;7.954;2022-11-15T14:54:57;6.50;;;2.40;;
53115;SDS011;39010;48.088;7.954;2022-11-15T14:57:25;6.38;;;2.60;;
53115;SDS011;39010;48.088;7.954;2022-11-15T14:59:51;7.97;;;3.67;;
53115;SDS011;39010;48.088;7.954;2022-11-15T15:04:49;9.05;;;3.75;;
53115;SDS011;39010;48.088;7.954;2022-11-15T15:07:18;10.85;;;4.75;;
53115;SDS011;39010;48.088;7.954;2022-11-15T15:09:46;8.40;;;3.92;;
53115;SDS011;39010;48.088;7.954;2022-11-15T15:12:16;8.65;;;2.88;;
53115;SDS011;39010;48.088;7.954;2022-11-15T15:14:44;4.72;;;1.95;;
53115;SDS011;39010;48.088;7.954;2022-11-15T15:17:12;6.25;;;2.53;;
53115;SDS011;39010;48.088;7.954;2022-11-15T15:19:40;5.22;;;4.13;;
53115;SDS011;39010;48.088;7.954;2022-11-15T15:22:14;9.13;;;5.20;;
53115;SDS011;39010;48.088;7.954;2022-11-15T15:24:43;8.35;;;4.47;;
53115;SDS011;39010;48.088;7.954;2022-11-15T15:27:12;9.48;;;4.70;;
53115;SDS011;39010;48.088;7.954;2022-11-15T15:32:06;10.07;;;4.70;;
53115;SDS011;39010;48.088;7.954;2022-11-15T15:34:32;7.88;;;4.97;;
53115;SDS011;39010;48.088;7.954;2022-11-15T15:37:18;11.93;;;7.55;;
53115;SDS011;39010;48.088;7.954;2022-11-15T15:39:50;11.32;;;7.20;;
53115;SDS011;39010;48.088;7.954;2022-11-15T15:42:18;7.55;;;4.32;;
53115;SDS011;39010;48.088;7.954;2022-11-15T15:44:46;9.00;;;3.45;;
53115;SDS011;39010;48.088;7.954;2022-11-15T15:47:14;5.03;;;2.28;;
53115;SDS011;39010;48.088;7.954;2022-11-15T15:49:43;4.47;;;1.70;;
53115;SDS011;39010;48.088;7.954;2022-11-15T15:52:10;2.97;;;1.65;;
53115;SDS011;39010;48.088;7.954;2022-11-15T15:54:38;6.65;;;2.97;;
53115;SDS011;39010;48.088;7.954;2022-11-15T15:57:05;10.13;;;3.15;;
53115;SDS011;39010;48.088;7.954;2022-11-15T15:59:32;9.07;;;3.55;;
53115;SDS011;39010;48.088;7.954;2022-11-15T16:04:27;5.83;;;2.30;;
53115;SDS011;39010;48.088;7.954;2022-11-15T16:06:58;6.15;;;2.97;;
53115;SDS011;39010;48.088;7.954;2022-11-15T16:09:25;13.45;;;5.60;;
53115;SDS011;39010;48.088;7.954;2022-11-15T16:12:11;12.07;;;5.43;;
53115;SDS011;39010;48.088;7.954;2022-11-15T16:17:03;15.55;;;6.85;;
53115;SDS011;39010;48.088;7.954;2022-11-15T16:19:30;16.75;;;8.23;;
53115;SDS011;39010;48.088;7.954;2022-11-15T16:21:57;17.20;;;9.27;;
53115;SDS011;39010;48.088;7.954;2022-11-15T16:24:23;7.93;;;3.30;;
53115;SDS011;39010;48.088;7.954;2022-11-15T16:29:17;7.85;;;2.78;;
53115;SDS011;39010;48.088;7.954;2022-11-15T16:31:44;8.45;;;4.15;;
53115;SDS011;39010;48.088;7.954;2022-11-15T16:36:37;8.93;;;3.08;;
53115;SDS011;39010;48.088;7.954;2022-11-15T16:39:04;6.68;;;3.33;;
53115;SDS011;39010;48.088;7.954;2022-11-15T16:41:32;5.70;;;2.83;;
53115;SDS011;39010;48.088;7.954;2022-11-15T16:43:59;10.07;;;5.32;;
53115;SDS011;39010;48.088;7.954;2022-11-15T16:46:26;10.13;;;5.45;;
53115;SDS011;39010;48.088;7.954;2022-11-15T16:48:55;10.45;;;5.90;;
53115;SDS011;39010;48.088;7.954;2022-11-15T16:51:22;8.25;;;4.05;;
53115;SDS011;39010;48.088;7.954;2022-11-15T16:53:49;9.40;;;3.78;;
53115;SDS011;39010;48.088;7.954;2022-11-15T16:58:55;23.75;;;17.60;;
53115;SDS011;39010;48.088;7.954;2022-11-15T17:01:30;19.90;;;12.23;;
53115;SDS011;39010;48.088;7.954;2022-11-15T17:03:58;14.38;;;8.88;;
53115;SDS011;39010;48.088;7.954;2022-11-15T17:06:25;12.38;;;6.90;;
53115;SDS011;39010;48.088;7.954;2022-11-15T17:08:52;13.18;;;7.55;;
53115;SDS011;39010;48.088;7.954;2022-11-15T17:11:20;15.10;;;9.50;;
53115;SDS011;39010;48.088;7.954;2022-11-15T17:13:47;14.35;;;7.70;;
53115;SDS011;39010;48.088;7.954;2022-11-15T17:16:15;15.32;;;8.27;;
53115;SDS011;39010;48.088;7.954;2022-11-15T17:18:43;15.60;;;10.57;;
53115;SDS011;39010;48.088;7.954;2022-11-15T17:21:11;14.13;;;9.05;;
53115;SDS011;39010;48.088;7.954;2022-11-15T17:23:41;13.85;;;8.48;;
53115;SDS011;39010;48.088;7.954;2022-11-15T17:26:08;14.13;;;8.63;;
53115;SDS011;39010;48.088;7.954;2022-11-15T17:33:55;13.75;;;8.02;;
53115;SDS011;39010;48.088;7.954;2022-11-15T17:38:48;17.52;;;10.38;;
53115;SDS011;39010;48.088;7.954;2022-11-15T17:41:24;24.02;;;14.68;;
53115;SDS011;39010;48.088;7.954;2022-11-15T17:43:51;17.10;;;10.18;;
53115;SDS011;39010;48.088;7.954;2022-11-15T17:46:18;17.67;;;9.38;;
53115;SDS011;39010;48.088;7.954;2022-11-15T17:48:46;14.50;;;8.82;;
53115;SDS011;39010;48.088;7.954;2022-11-15T17:51:14;17.00;;;9.35;;
53115;SDS011;39010;48.088;7.954;2022-11-15T17:53:43;15.07;;;9.80;;
53115;SDS011;39010;48.088;7.954;2022-11-15T17:56:13;17.23;;;8.50;;
53115;SDS011;39010;48.088;7.954;2022-11-15T17:58:45;14.00;;;7.80;;
53115;SDS011;39010;48.088;7.954;2022-11-15T18:01:23;14.27;;;7.35;;
53115;SDS011;39010;48.088;7.954;2022-11-15T18:03:55;13.13;;;7.68;;
53115;SDS011;39010;48.088;7.954;2022-11-15T18:06:23;40.15;;;23.52;;
53115;SDS011;39010;48.088;7.954;2022-11-15T18:08:50;27.38;;;16.85;;
53115;SDS011;39010;48.088;7.954;2022-11-15T18:11:19;27.70;;;16.55;;
53115;SDS011;39010;48.088;7.954;2022-11-15T18:13:49;23.55;;;13.85;;
53115;SDS011;39010;48.088;7.954;2022-11-15T18:16:19;27.38;;;13.80;;
53115;SDS011;39010;48.088;7.954;2022-11-15T18:18:49;22.48;;;15.00;;
53115;SDS011;39010;48.088;7.954;2022-11-15T18:21:17;25.75;;;15.73;;
53115;SDS011;39010;48.088;7.954;2022-11-15T18:23:49;27.92;;;14.93;;
53115;SDS011;39010;48.088;7.954;2022-11-15T18:26:19;38.13;;;23.58;;
53115;SDS011;39010;48.088;7.954;2022-11-15T18:28:52;26.92;;;15.80;;
53115;SDS011;39010;48.088;7.954;2022-11-15T18:31:24;21.42;;;11.50;;
53115;SDS011;39010;48.088;7.954;2022-11-15T18:33:53;15.25;;;9.00;;
53115;SDS011;39010;48.088;7.954;2022-11-15T18:36:20;16.65;;;9.18;;
53115;SDS011;39010;48.088;7.954;2022-11-15T18:38:52;16.35;;;9.70;;
53115;SDS011;39010;48.088;7.954;2022-11-15T18:41:23;18.10;;;10.68;;
53115;SDS011;39010;48.088;7.954;2022-11-15T18:43:54;21.27;;;12.05;;
53115;SDS011;39010;48.088;7.954;2022-11-15T18:46:22;26.88;;;14.20;;
53115;SDS011;39010;48.088;7.954;2022-11-15T18:48:51;21.67;;;13.18;;
53115;SDS011;39010;48.088;7.954;2022-11-15T18:51:20;16.00;;;9.32;;
53115;SDS011;39010;48.088;7.954;2022-11-15T18:53:48;14.10;;;7.55;;
53115;SDS011;39010;48.088;7.954;2022-11-15T18:56:19;18.90;;;9.45;;
53115;SDS011;39010;48.088;7.954;2022-11-15T18:58:48;17.38;;;10.65;;
53115;SDS011;39010;48.088;7.954;2022-11-15T19:01:17;19.40;;;12.63;;
53115;SDS011;39010;48.088;7.954;2022-11-15T19:03:49;12.82;;;7.50;;
53115;SDS011;39010;48.088;7.954;2022-11-15T19:06:19;10.57;;;6.40;;